Time,TemperatureF,DewpointF,PressureIn,WindDirection,WindDirectionDegrees,WindSpeedMPH,WindSpeedGustMPH,Humidity,HourlyPrecipIn,Conditions,Clouds,dailyrainin,SoftwareType,DateUTC
2013-05-15 00:05:00,54.7,49.3,30.07,North,0,0.0,0.0,82,0.00,,CLR,0.00,VWS V14.01,2013-05-15 04:05:00,
2013-05-15 00:10:00,54.3,49.3,30.07,North,358,0.0,0.0,83,0.00,,CLR,0.00,VWS V14.01,2013-05-15 04:10:00,
2013-05-15 00:15:00,53.9,49.2,30.07,North,358,0.0,0.0,84,0.00,,CLR,0.00,VWS V14.01,2013-05-15 04:15:00,
2013-05-15 00:20:00,53.7,49.6,30.07,North,358,0.0,0.0,86,0.00,,CLR,0.00,VWS V14.01,2013-05-15 04:20:00,
2013-05-15 00:25:00,53.4,49.3,30.07,North,359,0.0,0.0,86,0.00,,CLR,0.00,VWS V14.01,2013-05-15 04:25:00,
2013-05-15 00:30:00,53.2,49.4,30.07,North,359,0.0,0.0,87,0.00,,CLR,0.00,VWS V14.01,2013-05-15 04:30:00,
2013-05-15 00:35:00,53.0,49.2,30.07,North,359,0.0,0.0,87,0.00,,CLR,0.00,VWS V14.01,2013-05-15 04:35:00,
2013-05-15 00:40:00,52.8,49.0,30.06,North,359,0.0,0.0,87,0.00,,CLR,0.00,VWS V14.01,2013-05-15 04:40:00,
2013-05-15 00:45:00,52.6,49.2,30.06,SE,140,0.0,0.0,88,0.00,,CLR,0.00,VWS V14.01,2013-05-15 04:45:00,
2013-05-15 00:50:00,52.4,49.0,30.06,SE,141,0.0,0.0,88,0.00,,CLR,0.00,VWS V14.01,2013-05-15 04:50:00,
2013-05-15 00:55:00,52.2,48.8,30.07,SE,141,0.0,0.0,88,0.00,,CLR,0.00,VWS V14.01,2013-05-15 04:55:00,
2013-05-15 01:00:00,52.2,49.1,30.07,SE,141,0.0,0.0,89,0.56,,CLR,0.00,VWS V14.01,2013-05-15 05:00:00,
2013-05-15 01:05:00,52.2,48.8,30.07,South,169,0.0,0.0,88,0.00,,CLR,0.00,VWS V14.01,2013-05-15 05:05:00,
2013-05-15 01:10:00,52.0,48.9,30.06,South,169,0.0,0.0,89,0.00,,CLR,0.00,VWS V14.01,2013-05-15 05:10:00,
2013-05-15 01:15:00,51.9,48.8,30.07,South,169,0.0,0.0,89,0.00,,CLR,0.00,VWS V14.01,2013-05-15 05:15:00,
2013-05-15 01:20:00,51.7,48.9,30.07,South,169,0.0,0.0,90,0.00,,CLR,0.00,VWS V14.01,2013-05-15 05:20:00,
2013-05-15 01:25:00,51.4,48.6,30.06,South,169,0.0,0.0,90,0.00,,CLR,0.00,VWS V14.01,2013-05-15 05:25:00,
2013-05-15 01:30:00,51.2,48.4,30.06,South,169,0.0,0.0,90,0.00,,CLR,0.00,VWS V14.01,2013-05-15 05:30:00,
2013-05-15 01:35:00,51.0,48.5,30.06,South,169,0.0,0.0,91,0.00,,CLR,0.00,VWS V14.01,2013-05-15 05:35:00,
2013-05-15 01:40:00,50.9,48.4,30.06,South,169,0.0,0.0,91,0.00,,CLR,0.00,VWS V14.01,2013-05-15 05:40:00,
2013-05-15 01:45:00,50.7,48.5,30.06,South,169,0.0,0.0,92,0.00,,CLR,0.00,VWS V14.01,2013-05-15 05:45:00,
2013-05-15 01:50:00,50.6,48.4,30.06,South,169,0.0,0.0,92,0.00,,CLR,0.00,VWS V14.01,2013-05-15 05:50:00,
2013-05-15 01:55:00,50.5,48.3,30.06,South,169,0.0,0.0,92,0.00,,CLR,0.00,VWS V14.01,2013-05-15 05:55:00,
2013-05-15 02:00:00,50.4,48.5,30.06,South,169,0.0,0.0,93,0.00,,CLR,0.00,VWS V14.01,2013-05-15 06:00:00,
2013-05-15 02:05:00,50.3,48.4,30.05,South,183,0.0,0.0,93,0.00,,CLR,0.00,VWS V14.01,2013-05-15 06:05:00,
2013-05-15 02:10:00,50.6,48.7,30.04,SW,231,0.0,2.0,93,0.00,,CLR,0.00,VWS V14.01,2013-05-15 06:10:00,
2013-05-15 02:15:00,50.5,48.3,30.04,NE,36,1.0,2.0,92,0.00,,CLR,0.00,VWS V14.01,2013-05-15 06:15:00,
2013-05-15 02:20:00,50.1,48.2,30.05,NNW,346,0.0,0.0,93,0.00,,CLR,0.00,VWS V14.01,2013-05-15 06:20:00,
2013-05-15 02:25:00,50.2,48.3,30.04,NNW,345,0.0,0.0,93,0.00,,CLR,0.00,VWS V14.01,2013-05-15 06:25:00,
2013-05-15 02:30:00,50.3,48.1,30.04,East,80,0.0,0.0,92,0.00,,CLR,0.00,VWS V14.01,2013-05-15 06:30:00,
2013-05-15 02:35:00,50.1,48.2,30.04,SE,142,0.0,0.0,93,0.00,,CLR,0.00,VWS V14.01,2013-05-15 06:35:00,
2013-05-15 02:40:00,50.1,48.2,30.04,South,169,0.0,0.0,93,0.00,,CLR,0.00,VWS V14.01,2013-05-15 06:40:00,
2013-05-15 02:45:00,50.4,48.5,30.04,WSW,257,0.0,0.0,93,0.00,,CLR,0.00,VWS V14.01,2013-05-15 06:45:00,
2013-05-15 02:50:00,50.3,48.1,30.04,ENE,69,0.0,0.0,92,0.00,,CLR,0.00,VWS V14.01,2013-05-15 06:50:00,
2013-05-15 02:55:00,50.1,47.9,30.03,ENE,69,0.0,0.0,92,0.00,,CLR,0.00,VWS V14.01,2013-05-15 06:55:00,
2013-05-15 03:00:00,49.9,48.0,30.03,ENE,70,0.0,0.0,93,0.00,,CLR,0.00,VWS V14.01,2013-05-15 07:00:00,
2013-05-15 03:05:00,49.8,47.9,30.03,ENE,65,0.0,0.0,93,0.00,,CLR,0.00,VWS V14.01,2013-05-15 07:05:00,
2013-05-15 03:10:00,49.8,47.9,30.03,North,349,0.0,0.0,93,0.00,,CLR,0.00,VWS V14.01,2013-05-15 07:10:00,
2013-05-15 03:15:00,49.6,47.7,30.03,ENE,61,0.0,0.0,93,0.00,,CLR,0.00,VWS V14.01,2013-05-15 07:15:00,
2013-05-15 03:20:00,49.4,47.5,30.03,East,95,0.0,0.0,93,0.00,,CLR,0.00,VWS V14.01,2013-05-15 07:20:00,
2013-05-15 03:25:00,49.2,47.5,30.03,WSW,238,0.0,0.0,94,0.00,,CLR,0.00,VWS V14.01,2013-05-15 07:25:00,
2013-05-15 03:30:00,49.3,47.9,30.03,SSE,160,0.0,0.0,95,0.00,,CLR,0.00,VWS V14.01,2013-05-15 07:30:00,
2013-05-15 03:35:00,49.5,48.1,30.03,West,269,0.0,0.0,95,0.00,,CLR,0.00,VWS V14.01,2013-05-15 07:35:00,
2013-05-15 03:40:00,49.5,47.8,30.03,West,270,0.0,0.0,94,0.00,,CLR,0.00,VWS V14.01,2013-05-15 07:40:00,
2013-05-15 03:45:00,49.5,47.8,30.03,ENE,61,0.0,0.0,94,0.00,,CLR,0.00,VWS V14.01,2013-05-15 07:45:00,
2013-05-15 03:50:00,49.2,47.5,30.03,NE,55,0.0,0.0,94,0.00,,CLR,0.00,VWS V14.01,2013-05-15 07:50:00,
2013-05-15 03:55:00,49.3,47.7,30.02,SE,131,1.0,2.0,94,0.00,,CLR,0.00,VWS V14.01,2013-05-15 07:55:00,
2013-05-15 04:00:00,49.4,48.0,30.03,SE,125,1.0,1.0,95,0.00,,CLR,0.00,VWS V14.01,2013-05-15 08:00:00,
2013-05-15 04:05:00,49.5,47.8,30.03,WNW,295,0.0,0.0,94,0.00,,CLR,0.00,VWS V14.01,2013-05-15 08:05:00,
2013-05-15 04:10:00,49.5,47.8,30.03,NW,308,2.0,3.0,94,0.00,,CLR,0.00,VWS V14.01,2013-05-15 08:10:00,
2013-05-15 04:15:00,49.5,47.8,30.02,ESE,122,0.0,1.0,94,0.00,,CLR,0.00,VWS V14.01,2013-05-15 08:15:00,
2013-05-15 04:20:00,49.5,47.8,30.02,ENE,73,0.0,0.0,94,0.00,,CLR,0.00,VWS V14.01,2013-05-15 08:20:00,
2013-05-15 04:25:00,49.3,47.7,30.03,NW,305,0.0,2.0,94,0.00,,CLR,0.00,VWS V14.01,2013-05-15 08:25:00,
2013-05-15 04:30:00,49.2,47.5,30.03,NW,305,0.0,0.0,94,0.00,,CLR,0.00,VWS V14.01,2013-05-15 08:30:00,
2013-05-15 04:35:00,49.1,47.5,30.03,NE,47,0.0,0.0,94,0.00,,CLR,0.00,VWS V14.01,2013-05-15 08:35:00,
2013-05-15 04:40:00,49.0,47.3,30.03,East,98,0.0,0.0,94,0.00,,CLR,0.00,VWS V14.01,2013-05-15 08:40:00,
2013-05-15 04:45:00,49.1,47.5,30.03,NNE,33,0.0,0.0,94,0.00,,CLR,0.00,VWS V14.01,2013-05-15 08:45:00,
2013-05-15 04:50:00,48.7,47.0,30.03,NE,41,1.0,3.0,94,0.00,,CLR,0.00,VWS V14.01,2013-05-15 08:50:00,
2013-05-15 04:55:00,49.1,48.0,30.04,NNE,30,1.0,2.0,96,0.00,,CLR,0.00,VWS V14.01,2013-05-15 08:55:00,
2013-05-15 05:00:00,49.5,48.1,30.04,North,359,0.0,0.0,95,0.00,,CLR,0.00,VWS V14.01,2013-05-15 09:00:00,
2013-05-15 05:05:00,50.0,48.6,30.04,NE,52,0.0,0.0,95,0.00,,CLR,0.00,VWS V14.01,2013-05-15 09:05:00,
2013-05-15 05:10:00,50.3,48.6,30.03,WNW,293,0.0,0.0,94,0.00,,CLR,0.00,VWS V14.01,2013-05-15 09:10:00,
2013-05-15 05:15:00,50.6,48.7,30.03,NNW,330,0.0,0.0,93,0.00,,CLR,0.00,VWS V14.01,2013-05-15 09:15:00,
2013-05-15 05:20:00,50.2,48.0,30.03,North,353,0.0,0.0,92,0.00,,CLR,0.00,VWS V14.01,2013-05-15 09:20:00,
2013-05-15 05:25:00,50.0,48.1,30.03,NNW,330,0.0,0.0,93,0.00,,CLR,0.00,VWS V14.01,2013-05-15 09:25:00,
2013-05-15 05:30:00,49.7,47.8,30.03,NNE,30,2.0,3.0,93,0.00,,CLR,0.00,VWS V14.01,2013-05-15 09:30:00,
2013-05-15 05:35:00,49.0,47.3,30.03,NE,41,1.0,1.0,94,0.00,,CLR,0.00,VWS V14.01,2013-05-15 09:35:00,
2013-05-15 05:40:00,49.4,48.3,30.04,SSE,150,0.0,0.0,96,0.00,,CLR,0.00,VWS V14.01,2013-05-15 09:40:00,
2013-05-15 05:45:00,50.0,48.9,30.03,SW,232,1.0,2.0,96,0.00,,CLR,0.00,VWS V14.01,2013-05-15 09:45:00,
2013-05-15 05:50:00,50.4,48.5,30.04,NNE,12,2.0,2.0,93,0.00,,CLR,0.00,VWS V14.01,2013-05-15 09:50:00,
2013-05-15 05:55:00,49.9,48.2,30.04,NE,36,0.0,0.0,94,0.00,,CLR,0.00,VWS V14.01,2013-05-15 09:55:00,
2013-05-15 06:00:00,49.9,48.5,30.04,NE,35,0.0,0.0,95,0.00,,CLR,0.00,VWS V14.01,2013-05-15 10:00:00,
2013-05-15 06:05:00,50.0,48.3,30.04,NE,36,0.0,0.0,94,0.00,,CLR,0.00,VWS V14.01,2013-05-15 10:05:00,
2013-05-15 06:10:00,50.0,48.3,30.04,NE,36,0.0,0.0,94,0.00,,CLR,0.00,VWS V14.01,2013-05-15 10:10:00,
2013-05-15 06:15:00,49.9,48.2,30.04,NE,36,0.0,0.0,94,0.00,,CLR,0.00,VWS V14.01,2013-05-15 10:15:00,
2013-05-15 06:20:00,49.7,48.0,30.05,NE,36,0.0,0.0,94,0.00,,CLR,0.00,VWS V14.01,2013-05-15 10:20:00,
2013-05-15 06:25:00,49.4,47.8,30.05,NE,36,0.0,0.0,94,0.00,,CLR,0.00,VWS V14.01,2013-05-15 10:25:00,
2013-05-15 06:30:00,49.4,48.0,30.05,NE,36,0.0,0.0,95,0.00,,CLR,0.00,VWS V14.01,2013-05-15 10:30:00,
2013-05-15 06:35:00,49.4,48.0,30.05,NE,38,0.0,0.0,95,0.00,,CLR,0.00,VWS V14.01,2013-05-15 10:35:00,
2013-05-15 06:40:00,49.5,48.1,30.05,South,181,0.0,0.0,95,0.00,,CLR,0.00,VWS V14.01,2013-05-15 10:40:00,
2013-05-15 06:45:00,49.8,48.4,30.05,WSW,248,0.0,0.0,95,0.00,,CLR,0.00,VWS V14.01,2013-05-15 10:45:00,
2013-05-15 06:50:00,50.3,48.9,30.06,NNW,327,0.0,0.0,95,0.00,,CLR,0.00,VWS V14.01,2013-05-15 10:50:00,
2013-05-15 06:55:00,50.7,48.8,30.06,ESE,103,0.0,0.0,93,0.00,,CLR,0.00,VWS V14.01,2013-05-15 10:55:00,
2013-05-15 07:00:00,51.4,49.5,30.05,East,101,0.0,0.0,93,0.00,,CLR,0.00,VWS V14.01,2013-05-15 11:00:00,
2013-05-15 07:05:00,52.3,50.0,30.06,ENE,64,0.0,0.0,92,0.00,,CLR,0.00,VWS V14.01,2013-05-15 11:05:00,
2013-05-15 07:10:00,52.8,50.0,30.06,NW,322,0.0,0.0,90,0.00,,CLR,0.00,VWS V14.01,2013-05-15 11:10:00,
2013-05-15 07:15:00,53.6,50.4,30.05,NNE,25,0.0,0.0,89,0.00,,CLR,0.00,VWS V14.01,2013-05-15 11:15:00,
2013-05-15 07:20:00,54.1,50.9,30.05,NNE,18,0.0,0.0,89,0.00,,CLR,0.00,VWS V14.01,2013-05-15 11:20:00,
2013-05-15 07:25:00,54.5,51.0,30.06,NNE,21,0.0,0.0,88,0.00,,CLR,0.00,VWS V14.01,2013-05-15 11:25:00,
2013-05-15 07:30:00,54.9,51.4,30.06,NE,41,0.0,0.0,88,0.00,,CLR,0.00,VWS V14.01,2013-05-15 11:30:00,
2013-05-15 07:36:00,55.3,51.5,30.06,NE,43,0.0,0.0,87,0.00,,CLR,0.00,VWS V14.01,2013-05-15 11:36:00,
2013-05-15 07:41:00,55.7,51.6,30.06,NNE,33,1.0,2.0,86,0.00,,CLR,0.00,VWS V14.01,2013-05-15 11:41:00,
2013-05-15 07:46:00,56.1,52.0,30.05,SE,139,0.0,0.0,86,0.00,,CLR,0.00,VWS V14.01,2013-05-15 11:46:00,
2013-05-15 07:51:00,56.8,52.3,30.05,NNE,33,0.0,2.0,85,0.00,,CLR,0.00,VWS V14.01,2013-05-15 11:51:00,
2013-05-15 07:56:00,57.4,52.3,30.06,NE,36,2.0,2.0,83,0.00,,CLR,0.00,VWS V14.01,2013-05-15 11:56:00,
2013-05-15 08:01:00,57.8,53.0,30.06,SSE,150,1.0,1.0,84,0.00,,CLR,0.00,VWS V14.01,2013-05-15 12:01:00,
2013-05-15 08:06:00,58.9,53.1,30.06,SSE,148,0.0,1.0,81,0.00,,CLR,0.00,VWS V14.01,2013-05-15 12:06:00,
2013-05-15 08:11:00,60.1,53.6,30.06,SSE,148,1.0,1.0,79,0.00,,CLR,0.00,VWS V14.01,2013-05-15 12:11:00,
2013-05-15 08:16:00,61.5,55.3,30.05,SE,139,0.0,0.0,80,0.00,,CLR,0.00,VWS V14.01,2013-05-15 12:16:00,
2013-05-15 08:21:00,63.3,55.6,30.05,NNE,33,0.0,0.0,76,0.00,,CLR,0.00,VWS V14.01,2013-05-15 12:21:00,
2013-05-15 08:26:00,63.9,56.9,30.05,NNE,32,0.0,0.0,78,0.00,,CLR,0.00,VWS V14.01,2013-05-15 12:26:00,
2013-05-15 08:32:00,65.2,57.5,30.05,NNE,33,0.0,0.0,76,0.00,,CLR,0.00,VWS V14.01,2013-05-15 12:32:00,
2013-05-15 08:37:00,65.5,57.7,30.06,North,355,0.0,0.0,76,0.00,,CLR,0.00,VWS V14.01,2013-05-15 12:37:00,
2013-05-15 08:42:00,65.9,58.1,30.05,NNE,22,0.0,0.0,76,0.00,,CLR,0.00,VWS V14.01,2013-05-15 12:42:00,
2013-05-15 08:47:00,67.0,58.5,30.06,NNE,14,2.0,2.0,74,0.00,,CLR,0.00,VWS V14.01,2013-05-15 12:47:00,
2013-05-15 08:52:00,67.6,58.7,30.06,NNE,32,1.0,2.0,73,0.00,,CLR,0.00,VWS V14.01,2013-05-15 12:52:00,
2013-05-15 08:57:00,68.5,59.1,30.06,NE,50,0.0,0.0,72,0.00,,CLR,0.00,VWS V14.01,2013-05-15 12:57:00,
2013-05-15 09:02:00,70.0,61.0,30.06,NE,38,1.0,1.0,73,0.00,,CLR,0.00,VWS V14.01,2013-05-15 13:02:00,
2013-05-15 09:07:00,71.3,61.8,30.06,WSW,247,2.0,4.0,72,0.00,,CLR,0.00,VWS V14.01,2013-05-15 13:07:00,
2013-05-15 09:12:00,72.8,61.2,30.06,SW,225,1.0,1.0,67,0.00,,CLR,0.00,VWS V14.01,2013-05-15 13:12:00,
2013-05-15 09:17:00,74.9,60.1,30.06,NNE,32,1.0,3.0,60,0.00,,CLR,0.00,VWS V14.01,2013-05-15 13:17:00,
2013-05-15 09:22:00,76.2,58.9,30.06,WNW,283,0.0,0.0,55,0.00,,CLR,0.00,VWS V14.01,2013-05-15 13:22:00,
2013-05-15 09:27:00,77.1,58.1,30.06,NNE,32,3.0,4.0,52,0.00,,CLR,0.00,VWS V14.01,2013-05-15 13:27:00,
2013-05-15 09:32:00,77.7,56.5,30.06,NW,312,3.0,6.0,48,0.00,,CLR,0.00,VWS V14.01,2013-05-15 13:32:00,
2013-05-15 09:37:00,78.4,57.1,30.06,West,277,1.0,5.0,48,0.00,,CLR,0.00,VWS V14.01,2013-05-15 13:37:00,
2013-05-15 09:42:00,79.1,56.6,30.06,West,259,2.0,2.0,46,0.00,,CLR,0.00,VWS V14.01,2013-05-15 13:42:00,
2013-05-15 09:47:00,79.8,57.2,30.06,SW,229,2.0,3.0,46,0.00,,CLR,0.00,VWS V14.01,2013-05-15 13:47:00,
2013-05-15 09:52:00,80.4,57.8,30.06,North,1,4.0,4.0,46,0.00,,CLR,0.00,VWS V14.01,2013-05-15 13:52:00,
2013-05-15 09:57:00,80.6,57.9,30.05,NNW,344,1.0,1.0,46,0.00,,CLR,0.00,VWS V14.01,2013-05-15 13:57:00,
2013-05-15 10:03:00,81.0,57.1,30.05,North,360,1.0,5.0,44,0.00,,CLR,0.00,VWS V14.01,2013-05-15 14:03:00,
2013-05-15 10:08:00,81.5,58.1,30.05,NW,305,1.0,1.0,45,0.00,,CLR,0.00,VWS V14.01,2013-05-15 14:08:00,
2013-05-15 10:13:00,81.8,57.1,30.05,SW,229,3.0,5.0,43,0.00,,CLR,0.00,VWS V14.01,2013-05-15 14:13:00,
2013-05-15 10:18:00,81.9,58.5,30.05,SSE,167,1.0,4.0,45,0.00,,CLR,0.00,VWS V14.01,2013-05-15 14:18:00,
2013-05-15 10:23:00,82.4,58.3,30.05,West,269,1.0,4.0,44,0.00,,CLR,0.00,VWS V14.01,2013-05-15 14:23:00,
2013-05-15 10:28:00,82.5,57.8,30.05,WNW,295,1.0,3.0,43,0.00,,CLR,0.00,VWS V14.01,2013-05-15 14:28:00,
2013-05-15 10:33:00,82.7,58.0,30.05,SW,214,0.0,3.0,43,0.00,,CLR,0.00,VWS V14.01,2013-05-15 14:33:00,
2013-05-15 10:38:00,83.2,57.8,30.05,WSW,253,5.0,11.0,42,0.00,,CLR,0.00,VWS V14.01,2013-05-15 14:38:00,
2013-05-15 10:43:00,83.6,56.8,30.05,SW,218,4.0,6.0,40,0.00,,CLR,0.00,VWS V14.01,2013-05-15 14:43:00,
2013-05-15 10:48:00,83.9,57.7,30.05,ESE,109,1.0,4.0,41,0.00,,CLR,0.00,VWS V14.01,2013-05-15 14:48:00,
2013-05-15 10:53:00,84.4,58.2,30.05,West,281,0.0,2.0,41,0.00,,CLR,0.00,VWS V14.01,2013-05-15 14:53:00,
2013-05-15 10:59:00,84.8,57.8,30.04,SSW,212,1.0,5.0,40,0.00,,CLR,0.00,VWS V14.01,2013-05-15 14:59:00,
2013-05-15 11:04:00,85.0,59.4,30.04,West,264,3.0,6.0,42,0.00,,CLR,0.00,VWS V14.01,2013-05-15 15:04:00,
2013-05-15 11:09:00,85.3,58.3,30.05,SW,217,2.0,3.0,40,0.00,,CLR,0.00,VWS V14.01,2013-05-15 15:09:00,
2013-05-15 11:14:00,85.8,58.7,30.04,WSW,248,1.0,4.0,40,0.00,,CLR,0.00,VWS V14.01,2013-05-15 15:14:00,
2013-05-15 11:19:00,86.5,59.3,30.04,NE,56,1.0,3.0,40,0.00,,,0.00,VWS V14.01,2013-05-15 15:19:00,
2013-05-15 11:24:00,87.0,59.1,30.04,North,5,2.0,2.0,39,0.00,,,0.00,VWS V14.01,2013-05-15 15:24:00,
2013-05-15 11:29:00,86.9,58.3,30.04,SW,236,2.0,3.0,38,0.00,,,0.00,VWS V14.01,2013-05-15 15:29:00,
2013-05-15 11:34:00,87.1,58.4,30.04,NNW,336,2.0,2.0,38,0.00,,,0.00,VWS V14.01,2013-05-15 15:34:00,
2013-05-15 11:39:00,87.8,58.3,30.04,South,169,2.0,2.0,37,0.00,,,0.00,VWS V14.01,2013-05-15 15:39:00,
2013-05-15 11:44:00,88.5,60.4,30.04,WSW,253,1.0,3.0,39,0.00,,,0.00,VWS V14.01,2013-05-15 15:44:00,
2013-05-15 11:49:00,88.2,57.1,30.04,SSW,212,4.0,6.0,35,0.00,,,0.00,VWS V14.01,2013-05-15 15:49:00,
2013-05-15 11:54:00,88.1,57.0,30.04,SW,221,6.0,7.0,35,0.00,,,0.00,VWS V14.01,2013-05-15 15:54:00,
2013-05-15 11:59:00,88.8,58.4,30.04,SW,232,1.0,10.0,36,0.00,,,0.00,VWS V14.01,2013-05-15 15:59:00,
2013-05-15 12:04:00,88.1,57.0,30.03,NW,309,3.0,9.0,35,0.00,,,0.00,VWS V14.01,2013-05-15 16:04:00,
2013-05-15 12:09:00,88.4,58.1,30.03,WSW,240,1.0,5.0,36,0.00,,,0.00,VWS V14.01,2013-05-15 16:09:00,
2013-05-15 12:14:00,88.6,59.0,30.03,NW,309,1.0,3.0,37,0.00,,,0.00,VWS V14.01,2013-05-15 16:14:00,
2013-05-15 12:19:00,89.2,58.0,30.03,NW,312,2.0,3.0,35,0.00,,,0.00,VWS V14.01,2013-05-15 16:19:00,
2013-05-15 12:24:00,89.3,58.1,30.02,North,360,1.0,3.0,35,0.00,,,0.00,VWS V14.01,2013-05-15 16:24:00,
2013-05-15 12:29:00,90.0,57.9,30.03,NW,312,2.0,3.0,34,0.00,,,0.00,VWS V14.01,2013-05-15 16:29:00,
2013-05-15 12:34:00,89.6,58.3,30.02,WNW,291,1.0,5.0,35,0.00,,,0.00,VWS V14.01,2013-05-15 16:34:00,
2013-05-15 12:39:00,89.8,58.5,30.02,NNW,330,3.0,4.0,35,0.00,,CLR,0.00,VWS V14.01,2013-05-15 16:39:00,
2013-05-15 12:44:00,90.0,57.9,30.02,West,278,2.0,2.0,34,0.00,,CLR,0.00,VWS V14.01,2013-05-15 16:44:00,
2013-05-15 12:49:00,90.6,56.7,30.02,NW,316,0.0,3.0,32,0.00,,CLR,0.00,VWS V14.01,2013-05-15 16:49:00,
2013-05-15 12:54:00,91.3,59.0,30.01,NW,312,5.0,7.0,34,0.00,,CLR,0.00,VWS V14.01,2013-05-15 16:54:00,
2013-05-15 12:59:00,90.5,57.5,30.01,WSW,240,1.0,3.0,33,0.00,,CLR,0.00,VWS V14.01,2013-05-15 16:59:00,
2013-05-15 13:05:00,91.1,58.0,30.01,NW,311,0.0,2.0,33,0.00,,CLR,0.00,VWS V14.01,2013-05-15 17:05:00,
2013-05-15 13:10:00,91.6,57.6,30.01,NW,308,1.0,7.0,32,0.00,,CLR,0.00,VWS V14.01,2013-05-15 17:10:00,
2013-05-15 13:15:00,91.7,56.8,30.01,NW,324,1.0,5.0,31,0.00,,CLR,0.00,VWS V14.01,2013-05-15 17:15:00,
2013-05-15 13:20:00,91.4,56.5,30.00,SSE,156,1.0,6.0,31,0.00,,CLR,0.00,VWS V14.01,2013-05-15 17:20:00,
2013-05-15 13:25:00,91.7,56.8,30.00,NW,313,2.0,2.0,31,0.00,,CLR,0.00,VWS V14.01,2013-05-15 17:25:00,
2013-05-15 13:30:00,92.6,59.3,30.00,NW,305,2.0,3.0,33,0.00,,CLR,0.00,VWS V14.01,2013-05-15 17:30:00,
2013-05-15 13:35:00,92.6,56.7,30.00,SW,227,0.0,2.0,30,0.00,,CLR,0.00,VWS V14.01,2013-05-15 17:35:00,
2013-05-15 13:40:00,93.2,57.2,30.00,SW,226,2.0,4.0,30,0.00,,CLR,0.00,VWS V14.01,2013-05-15 17:40:00,
2013-05-15 13:45:00,92.7,56.8,30.00,SSW,207,0.0,9.0,30,0.00,,CLR,0.00,VWS V14.01,2013-05-15 17:45:00,
2013-05-15 13:50:00,92.1,57.2,29.99,North,1,1.0,5.0,31,0.00,,CLR,0.00,VWS V14.01,2013-05-15 17:50:00,
2013-05-15 13:55:00,92.6,57.6,29.99,NNW,338,2.0,3.0,31,0.00,,CLR,0.00,VWS V14.01,2013-05-15 17:55:00,
2013-05-15 14:00:00,93.0,55.1,29.99,NW,305,2.0,8.0,28,0.00,,CLR,0.00,VWS V14.01,2013-05-15 18:00:00,
2013-05-15 14:06:00,91.8,56.0,29.99,NNW,335,2.0,2.0,30,0.00,,CLR,0.00,VWS V14.01,2013-05-15 18:06:00,
2013-05-15 14:11:00,92.7,56.8,29.99,WSW,247,4.0,5.0,30,0.00,,CLR,0.00,VWS V14.01,2013-05-15 18:11:00,
2013-05-15 14:16:00,92.8,58.6,29.98,NNW,330,2.0,4.0,32,0.00,,CLR,0.00,VWS V14.01,2013-05-15 18:16:00,
2013-05-15 14:21:00,92.4,56.5,29.98,West,271,3.0,7.0,30,0.00,,CLR,0.00,VWS V14.01,2013-05-15 18:21:00,
2013-05-15 14:26:00,92.7,56.8,29.98,SSW,198,1.0,3.0,30,0.00,,CLR,0.00,VWS V14.01,2013-05-15 18:26:00,
2013-05-15 14:31:00,93.0,57.0,29.98,NNW,330,2.0,2.0,30,0.00,,CLR,0.00,VWS V14.01,2013-05-15 18:31:00,
2013-05-15 14:36:00,93.3,56.3,29.98,NW,305,1.0,2.0,29,0.00,,CLR,0.00,VWS V14.01,2013-05-15 18:36:00,
2013-05-15 14:41:00,93.5,56.5,29.97,SW,220,0.0,1.0,29,0.00,,CLR,0.00,VWS V14.01,2013-05-15 18:41:00,
2013-05-15 14:46:00,93.8,56.8,29.98,WNW,297,0.0,2.0,29,0.00,,CLR,0.00,VWS V14.01,2013-05-15 18:46:00,
2013-05-15 14:51:00,93.5,54.5,29.97,WNW,302,9.0,9.0,27,0.00,,CLR,0.00,VWS V14.01,2013-05-15 18:51:00,
2013-05-15 14:56:00,92.6,56.7,29.97,SE,128,1.0,3.0,30,0.00,,CLR,0.00,VWS V14.01,2013-05-15 18:56:00,
2013-05-15 15:02:00,93.2,58.1,29.97,West,264,1.0,3.0,31,0.00,,CLR,0.00,VWS V14.01,2013-05-15 19:02:00,
2013-05-15 15:07:00,93.6,56.6,29.97,WNW,302,3.0,3.0,29,0.00,,CLR,0.00,VWS V14.01,2013-05-15 19:07:00,
2013-05-15 15:12:00,91.9,56.1,29.97,NW,312,0.0,3.0,30,0.00,,CLR,0.00,VWS V14.01,2013-05-15 19:12:00,
2013-05-15 15:17:00,92.5,57.5,29.97,SSW,212,2.0,3.0,31,0.00,,CLR,0.00,VWS V14.01,2013-05-15 19:17:00,
2013-05-15 15:22:00,92.8,59.5,29.96,WSW,249,3.0,3.0,33,0.00,,CLR,0.00,VWS V14.01,2013-05-15 19:22:00,
2013-05-15 15:27:00,92.8,59.5,29.96,SW,218,1.0,1.0,33,0.00,,CLR,0.00,VWS V14.01,2013-05-15 19:27:00,
2013-05-15 15:32:00,93.1,58.9,29.96,SW,229,1.0,1.0,32,0.00,,CLR,0.00,VWS V14.01,2013-05-15 19:32:00,
2013-05-15 15:37:00,93.5,59.2,29.96,SW,225,2.0,4.0,32,0.00,,CLR,0.00,VWS V14.01,2013-05-15 19:37:00,
2013-05-15 15:42:00,93.6,59.3,29.96,North,349,0.0,1.0,32,0.00,,CLR,0.00,VWS V14.01,2013-05-15 19:42:00,
2013-05-15 15:47:00,93.9,57.8,29.95,WNW,283,0.0,3.0,30,0.00,,CLR,0.00,VWS V14.01,2013-05-15 19:47:00,
2013-05-15 15:52:00,93.4,57.4,29.95,SW,222,5.0,5.0,30,0.00,,CLR,0.00,VWS V14.01,2013-05-15 19:52:00,
2013-05-15 15:57:00,92.7,58.5,29.95,SW,215,3.0,3.0,32,0.00,,CLR,0.00,VWS V14.01,2013-05-15 19:57:00,
2013-05-15 16:02:00,91.6,56.7,29.95,SE,145,1.0,1.0,31,0.00,,CLR,0.00,VWS V14.01,2013-05-15 20:02:00,
2013-05-15 16:07:00,91.5,58.4,29.94,East,79,0.0,1.0,33,0.00,,CLR,0.00,VWS V14.01,2013-05-15 20:07:00,
2013-05-15 16:12:00,92.3,57.3,29.94,WSW,245,1.0,5.0,31,0.00,,CLR,0.00,VWS V14.01,2013-05-15 20:12:00,
2013-05-15 16:17:00,92.3,59.9,29.94,SW,224,0.0,4.0,34,0.00,,CLR,0.00,VWS V14.01,2013-05-15 20:17:00,
2013-05-15 16:22:00,92.3,57.3,29.94,West,263,0.0,1.0,31,0.00,,CLR,0.00,VWS V14.01,2013-05-15 20:22:00,
2013-05-15 16:27:00,92.6,56.7,29.94,SW,233,1.0,4.0,30,0.00,,CLR,0.00,VWS V14.01,2013-05-15 20:27:00,
2013-05-15 16:32:00,92.7,58.5,29.93,NNW,333,3.0,3.0,32,0.00,,CLR,0.00,VWS V14.01,2013-05-15 20:32:00,
2013-05-15 16:38:00,91.8,56.0,29.94,WNW,302,0.0,2.0,30,0.00,,CLR,0.00,VWS V14.01,2013-05-15 20:38:00,
2013-05-15 16:43:00,91.6,57.6,29.93,SW,224,7.0,7.0,32,0.00,,CLR,0.00,VWS V14.01,2013-05-15 20:43:00,
2013-05-15 16:48:00,91.2,57.2,29.93,SSW,210,3.0,3.0,32,0.00,,CLR,0.00,VWS V14.01,2013-05-15 20:48:00,
2013-05-15 16:53:00,90.6,55.8,29.93,SW,226,0.0,3.0,31,0.00,,CLR,0.00,VWS V14.01,2013-05-15 20:53:00,
2013-05-15 16:58:00,90.2,55.5,29.93,SW,226,5.0,6.0,31,0.00,,CLR,0.00,VWS V14.01,2013-05-15 20:58:00,
2013-05-15 17:03:00,89.8,56.9,29.93,SW,232,0.0,3.0,33,0.00,,CLR,0.00,VWS V14.01,2013-05-15 21:03:00,
2013-05-15 17:08:00,89.8,60.8,29.93,WNW,283,2.0,5.0,38,0.00,,CLR,0.00,VWS V14.01,2013-05-15 21:08:00,
2013-05-15 17:13:00,89.0,62.3,29.93,SSW,207,4.0,5.0,41,0.00,,CLR,0.00,VWS V14.01,2013-05-15 21:13:00,
2013-05-15 17:19:00,88.5,61.1,29.93,South,181,5.0,9.0,40,0.00,,SCT080,0.00,VWS V14.01,2013-05-15 21:19:00,
2013-05-15 17:24:00,88.3,60.9,29.92,SW,221,3.0,8.0,40,0.00,,SCT080,0.00,VWS V14.01,2013-05-15 21:24:00,
2013-05-15 17:29:00,88.1,60.0,29.92,SW,215,3.0,6.0,39,0.00,,SCT080,0.00,VWS V14.01,2013-05-15 21:29:00,
2013-05-15 17:34:00,88.1,60.8,29.92,WSW,246,2.0,8.0,40,0.00,,SCT080,0.00,VWS V14.01,2013-05-15 21:34:00,
2013-05-15 17:39:00,87.7,59.7,29.92,SSW,198,4.0,13.0,39,0.00,,SCT120,0.00,VWS V14.01,2013-05-15 21:39:00,
2013-05-15 17:44:00,87.4,60.1,29.92,WSW,256,3.0,5.0,40,0.00,,SCT120,0.00,VWS V14.01,2013-05-15 21:44:00,
2013-05-15 17:49:00,87.2,60.0,29.92,WSW,248,2.0,5.0,40,0.00,,SCT120,0.00,VWS V14.01,2013-05-15 21:49:00,
2013-05-15 17:54:00,87.1,60.6,29.93,SSW,211,2.0,6.0,41,0.00,,SCT120,0.00,VWS V14.01,2013-05-15 21:54:00,
2013-05-15 17:59:00,86.7,60.2,29.93,WSW,249,3.0,8.0,41,0.00,,SCT110,0.00,VWS V14.01,2013-05-15 21:59:00,
2013-05-15 18:05:00,86.5,60.7,29.92,SW,218,2.0,7.0,42,0.00,,SCT110,0.00,VWS V14.01,2013-05-15 22:05:00,
2013-05-15 18:10:00,86.3,60.5,29.92,SW,217,5.0,8.0,42,0.00,,SCT110,0.00,VWS V14.01,2013-05-15 22:10:00,
2013-05-15 18:15:00,86.1,61.7,29.92,WSW,239,7.0,7.0,44,0.00,,SCT110,0.00,VWS V14.01,2013-05-15 22:15:00,
2013-05-15 18:20:00,85.9,60.8,29.92,SW,218,2.0,4.0,43,0.00,,CLR,0.00,VWS V14.01,2013-05-15 22:20:00,
2013-05-15 18:25:00,85.9,61.5,29.93,SW,222,3.0,6.0,44,0.00,,CLR,0.00,VWS V14.01,2013-05-15 22:25:00,
2013-05-15 18:30:00,85.8,60.7,29.92,WSW,256,5.0,6.0,43,0.00,,CLR,0.00,VWS V14.01,2013-05-15 22:30:00,
2013-05-15 18:35:00,85.6,61.2,29.92,SE,131,1.0,8.0,44,0.00,,CLR,0.00,VWS V14.01,2013-05-15 22:35:00,
2013-05-15 18:40:00,85.3,60.9,29.92,SSW,210,4.0,5.0,44,0.00,,CLR,0.00,VWS V14.01,2013-05-15 22:40:00,
2013-05-15 18:45:00,85.1,60.8,29.92,West,270,2.0,2.0,44,0.00,,CLR,0.00,VWS V14.01,2013-05-15 22:45:00,
2013-05-15 18:50:00,84.9,60.6,29.92,WSW,253,1.0,4.0,44,0.00,,CLR,0.00,VWS V14.01,2013-05-15 22:50:00,
2013-05-15 18:56:00,84.7,60.4,29.92,West,280,2.0,4.0,44,0.00,,CLR,0.00,VWS V14.01,2013-05-15 22:56:00,
2013-05-15 19:01:00,84.5,61.5,29.92,SW,232,1.0,1.0,46,0.00,,CLR,0.00,VWS V14.01,2013-05-15 23:01:00,
2013-05-15 19:06:00,84.3,61.3,29.92,SW,232,2.0,3.0,46,0.00,,CLR,0.00,VWS V14.01,2013-05-15 23:06:00,
2013-05-15 19:11:00,84.0,61.0,29.92,WSW,253,2.0,3.0,46,0.00,,CLR,0.00,VWS V14.01,2013-05-15 23:11:00,
2013-05-15 19:17:00,83.8,60.2,29.92,SW,226,5.0,6.0,45,0.00,,CLR,0.00,VWS V14.01,2013-05-15 23:17:00,
2013-05-15 19:22:00,83.6,60.0,29.92,SSW,207,3.0,5.0,45,0.00,,CLR,0.00,VWS V14.01,2013-05-15 23:22:00,
2013-05-15 19:27:00,83.4,60.5,29.92,WSW,246,1.0,5.0,46,0.00,,CLR,0.00,VWS V14.01,2013-05-15 23:27:00,
2013-05-15 19:32:00,83.1,60.8,29.92,SW,222,0.0,1.0,47,0.00,,CLR,0.00,VWS V14.01,2013-05-15 23:32:00,
2013-05-15 19:37:00,82.8,61.1,29.92,SW,226,0.0,2.0,48,0.00,,CLR,0.00,VWS V14.01,2013-05-15 23:37:00,
2013-05-15 19:42:00,82.5,60.3,29.93,West,270,1.0,6.0,47,0.00,,CLR,0.00,VWS V14.01,2013-05-15 23:42:00,
2013-05-15 19:47:00,82.3,60.7,29.93,SW,235,1.0,2.0,48,0.00,,CLR,0.00,VWS V14.01,2013-05-15 23:47:00,
2013-05-15 19:52:00,82.0,60.4,29.93,SSE,166,1.0,3.0,48,0.00,,CLR,0.00,VWS V14.01,2013-05-15 23:52:00,
2013-05-15 19:57:00,81.7,60.1,29.93,SW,221,1.0,2.0,48,0.00,,CLR,0.00,VWS V14.01,2013-05-15 23:57:00,
2013-05-15 20:02:00,81.6,60.0,29.93,SW,221,1.0,2.0,48,0.00,,CLR,0.00,VWS V14.01,2013-05-16 00:02:00,
2013-05-15 20:07:00,81.4,60.4,29.93,SW,222,0.0,2.0,49,0.00,,CLR,0.00,VWS V14.01,2013-05-16 00:07:00,
2013-05-15 20:12:00,81.0,60.1,29.93,SW,235,1.0,2.0,49,0.00,,CLR,0.00,VWS V14.01,2013-05-16 00:12:00,
2013-05-15 20:18:00,80.5,59.6,29.93,SW,224,0.0,2.0,49,0.00,,CLR,0.00,VWS V14.01,2013-05-16 00:18:00,
2013-05-15 20:23:00,80.0,60.3,29.93,SW,218,1.0,2.0,51,0.00,,CLR,0.00,VWS V14.01,2013-05-16 00:23:00,
2013-05-15 20:28:00,79.6,60.4,29.94,SW,235,2.0,3.0,52,0.00,,CLR,0.00,VWS V14.01,2013-05-16 00:28:00,
2013-05-15 20:33:00,79.4,59.7,29.94,SW,232,2.0,2.0,51,0.00,,CLR,0.00,VWS V14.01,2013-05-16 00:33:00,
2013-05-15 20:38:00,79.1,60.0,29.94,WSW,245,3.0,3.0,52,0.00,,CLR,0.00,VWS V14.01,2013-05-16 00:38:00,
2013-05-15 20:43:00,78.7,60.2,29.93,SW,227,0.0,1.0,53,0.00,,CLR,0.00,VWS V14.01,2013-05-16 00:43:00,
2013-05-15 20:48:00,78.3,59.8,29.94,SW,219,1.0,2.0,53,0.00,,CLR,0.00,VWS V14.01,2013-05-16 00:48:00,
2013-05-15 20:53:00,78.0,60.0,29.94,SW,232,1.0,1.0,54,0.00,,CLR,0.00,VWS V14.01,2013-05-16 00:53:00,
2013-05-15 20:58:00,77.8,59.8,29.94,SW,235,0.0,1.0,54,0.00,,CLR,0.00,VWS V14.01,2013-05-16 00:58:00,
2013-05-15 21:03:00,77.5,60.1,29.94,SW,235,0.0,1.0,55,0.00,,CLR,0.00,VWS V14.01,2013-05-16 01:03:00,
2013-05-15 21:08:00,77.0,59.6,29.94,SW,226,0.0,0.0,55,0.00,,CLR,0.00,VWS V14.01,2013-05-16 01:08:00,
2013-05-15 21:13:00,76.7,60.3,29.94,SW,229,0.0,0.0,57,0.00,,CLR,0.00,VWS V14.01,2013-05-16 01:13:00,
2013-05-15 21:18:00,76.6,60.2,29.94,WSW,247,0.0,1.0,57,0.00,,CLR,0.00,VWS V14.01,2013-05-16 01:18:00,
2013-05-15 21:23:00,76.4,60.1,29.94,SW,229,0.0,0.0,57,0.00,,CLR,0.00,VWS V14.01,2013-05-16 01:23:00,
2013-05-15 21:28:00,75.9,60.6,29.95,WNW,283,0.0,0.0,59,0.00,,CLR,0.00,VWS V14.01,2013-05-16 01:28:00,
2013-05-15 21:34:00,75.6,60.3,29.95,WSW,242,1.0,2.0,59,0.00,,CLR,0.00,VWS V14.01,2013-05-16 01:34:00,
2013-05-15 21:39:00,75.4,60.1,29.95,SW,235,0.0,1.0,59,0.00,,CLR,0.00,VWS V14.01,2013-05-16 01:39:00,
2013-05-15 21:44:00,75.2,60.4,29.95,SW,223,0.0,0.0,60,0.00,,CLR,0.00,VWS V14.01,2013-05-16 01:44:00,
2013-05-15 21:49:00,74.8,60.5,29.95,SW,224,0.0,0.0,61,0.00,,CLR,0.00,VWS V14.01,2013-05-16 01:49:00,
2013-05-15 21:54:00,74.4,60.1,29.95,WSW,239,0.0,0.0,61,0.00,,CLR,0.00,VWS V14.01,2013-05-16 01:54:00,
2013-05-15 21:59:00,74.0,60.2,29.95,SW,223,0.0,0.0,62,0.00,,CLR,0.00,VWS V14.01,2013-05-16 01:59:00,
2013-05-15 22:05:00,74.0,60.2,29.95,SSW,212,0.0,0.0,62,0.00,,CLR,0.00,VWS V14.01,2013-05-16 02:05:00,
2013-05-15 22:10:00,74.3,60.5,29.95,SW,226,0.0,1.0,62,0.00,,CLR,0.00,VWS V14.01,2013-05-16 02:10:00,
2013-05-15 22:15:00,74.4,60.1,29.95,SW,229,1.0,1.0,61,0.00,,CLR,0.00,VWS V14.01,2013-05-16 02:15:00,
2013-05-15 22:20:00,74.3,60.5,29.95,SSW,199,0.0,0.0,62,0.00,,CLR,0.00,VWS V14.01,2013-05-16 02:20:00,
2013-05-15 22:25:00,73.6,60.7,29.95,SSW,198,0.0,0.0,64,0.00,,CLR,0.00,VWS V14.01,2013-05-16 02:25:00,
2013-05-15 22:30:00,72.9,60.9,29.96,SSW,198,0.0,0.0,66,0.00,,CLR,0.00,VWS V14.01,2013-05-16 02:30:00,
2013-05-15 22:35:00,71.9,61.2,29.96,SSW,198,0.0,0.0,69,0.00,,CLR,0.00,VWS V14.01,2013-05-16 02:35:00,
2013-05-15 22:40:00,70.8,60.5,29.96,SSW,198,0.0,0.0,70,0.00,,CLR,0.00,VWS V14.01,2013-05-16 02:40:00,
2013-05-15 22:45:00,69.9,60.9,29.96,SSW,198,0.0,0.0,73,0.00,,CLR,0.00,VWS V14.01,2013-05-16 02:45:00,
2013-05-15 22:50:00,69.5,61.2,29.95,SSW,212,0.0,0.0,75,0.00,,CLR,0.00,VWS V14.01,2013-05-16 02:50:00,
2013-05-15 22:55:00,69.0,61.1,29.95,SW,221,0.0,0.0,76,0.00,,CLR,0.00,VWS V14.01,2013-05-16 02:55:00,
2013-05-15 23:00:00,68.3,61.2,29.95,SW,229,0.0,0.0,78,0.00,,CLR,0.00,VWS V14.01,2013-05-16 03:00:00,
2013-05-15 23:05:00,67.8,61.1,29.95,SW,229,0.0,0.0,79,0.00,,CLR,0.00,VWS V14.01,2013-05-16 03:05:00,
2013-05-15 23:13:00,67.4,61.0,29.95,North,0,0.0,0.0,80,0.00,,CLR,0.00,VWS V14.01,2013-05-16 03:13:00,
2013-05-15 23:18:00,66.9,60.9,29.95,SSW,207,0.0,0.0,81,0.00,,CLR,0.00,VWS V14.01,2013-05-16 03:18:00,
2013-05-15 23:23:00,66.4,60.4,29.95,South,181,0.0,0.0,81,0.00,,CLR,0.00,VWS V14.01,2013-05-16 03:23:00,
2013-05-15 23:28:00,66.0,60.7,29.94,SSE,153,0.0,0.0,83,0.00,,CLR,0.00,VWS V14.01,2013-05-16 03:28:00,
2013-05-15 23:33:00,65.6,60.6,29.94,SSE,151,0.0,0.0,84,0.00,,CLR,0.00,VWS V14.01,2013-05-16 03:33:00,
2013-05-15 23:38:00,65.2,60.2,29.95,SSE,152,0.0,0.0,84,0.00,,CLR,0.00,VWS V14.01,2013-05-16 03:38:00,
2013-05-15 23:43:00,65.0,60.4,29.95,SSE,152,0.0,0.0,85,0.00,,CLR,0.00,VWS V14.01,2013-05-16 03:43:00,
2013-05-15 23:48:00,64.7,60.4,29.95,SSE,150,0.0,0.0,86,0.00,,CLR,0.00,VWS V14.01,2013-05-16 03:48:00,
2013-05-15 23:53:00,64.4,60.1,29.95,SSE,153,0.0,0.0,86,0.00,,CLR,0.00,VWS V14.01,2013-05-16 03:53:00,
2013-05-15 23:58:00,64.2,60.3,29.95,SSE,153,0.0,0.0,87,0.00,,CLR,0.00,VWS V14.01,2013-05-16 03:58:00,